Time;durP1;ratioP1;P1;durP2;ratioP2;P2;SDS_P1;SDS_P2;PMS_P1;PMS_P2;Temp;Humidity;BMP_temperature;BMP_pressure;BME280_temperature;BME280_humidity;BME280_pressure;Samples;Min_cycle;Max_cycle;Signal;HPM_P1;HPM_P2
2021/10/30 00:02:04;;;;;;;24.52;11.95;;;7.80;99.90;;;;;;5045942;28;20031;-77
2021/10/30 00:04:29;;;;;;;23.15;12.25;;;7.90;99.90;;;;;;5035621;28;20416;-76
2021/10/30 00:06:56;;;;;;;23.00;11.38;;;7.80;99.90;;;;;;5045895;28;20120;-76
2021/10/30 00:09:23;;;;;;;18.33;11.00;;;7.80;99.90;;;;;;5048542;28;20043;-77
2021/10/30 00:11:48;;;;;;;15.90;9.48;;;7.90;99.90;;;;;;5044465;28;20564;-76
2021/10/30 00:14:14;;;;;;;13.63;7.88;;;7.90;99.90;;;;;;5049967;28;20032;-77
2021/10/30 00:16:40;;;;;;;13.00;8.10;;;7.80;99.90;;;;;;5048450;28;20060;-77
2021/10/30 00:19:05;;;;;;;13.30;7.55;;;7.60;99.90;;;;;;5045778;28;20403;-76
2021/10/30 00:21:31;;;;;;;14.93;7.50;;;7.50;99.90;;;;;;5047448;28;20025;-77
2021/10/30 00:23:57;;;;;;;13.07;8.45;;;7.40;99.90;;;;;;5048846;28;20100;-77
2021/10/30 00:26:23;;;;;;;18.33;8.90;;;7.40;99.90;;;;;;5043220;28;20033;-77
2021/10/30 00:28:49;;;;;;;24.90;9.75;;;7.50;99.90;;;;;;5048650;28;20509;-76
2021/10/30 00:31:15;;;;;;;19.42;11.07;;;7.50;99.90;;;;;;5049030;28;20047;-78
2021/10/30 00:33:41;;;;;;;19.25;9.68;;;7.40;99.90;;;;;;5049768;28;20482;-77
2021/10/30 00:36:07;;;;;;;17.90;11.02;;;7.30;99.90;;;;;;5048980;28;20028;-76
2021/10/30 00:38:33;;;;;;;22.85;12.18;;;7.30;99.90;;;;;;5051471;28;20025;-77
2021/10/30 00:41:02;;;;;;;21.42;12.30;;;7.60;99.90;;;;;;5049916;28;20097;-76
2021/10/30 00:43:27;;;;;;;15.70;10.07;;;7.60;99.90;;;;;;5046191;28;20037;-77
2021/10/30 00:45:53;;;;;;;20.85;11.50;;;7.60;99.90;;;;;;5046787;28;20122;-77
2021/10/30 00:48:19;;;;;;;17.60;9.40;;;7.40;99.90;;;;;;5053115;28;20091;-76
2021/10/30 00:50:44;;;;;;;20.70;10.55;;;7.50;99.90;;;;;;5051977;28;20098;-77
2021/10/30 00:53:11;;;;;;;18.75;10.63;;;7.50;99.90;;;;;;5033945;28;20028;-77
2021/10/30 00:55:39;;;;;;;16.67;9.80;;;7.60;99.90;;;;;;5047979;28;20042;-77
2021/10/30 00:58:05;;;;;;;15.63;9.50;;;7.60;99.90;;;;;;5050155;28;20029;-76
2021/10/30 01:00:31;;;;;;;16.90;9.82;;;7.50;99.90;;;;;;5051147;28;20021;-77
2021/10/30 01:02:57;;;;;;;18.45;9.68;;;7.50;99.90;;;;;;5050984;28;20158;-78
2021/10/30 01:05:23;;;;;;;21.35;10.45;;;7.30;99.90;;;;;;5052655;28;20036;-77
2021/10/30 01:07:49;;;;;;;18.33;9.77;;;7.10;99.90;;;;;;5044103;28;20032;-76
2021/10/30 01:10:15;;;;;;;12.27;6.10;;;7.10;99.90;;;;;;5038459;28;20049;-77
2021/10/30 01:12:42;;;;;;;12.95;6.57;;;7.30;99.90;;;;;;5051972;28;20025;-77
2021/10/30 01:15:08;;;;;;;10.35;5.97;;;7.50;99.90;;;;;;5034140;28;20029;-77
2021/10/30 01:17:34;;;;;;;12.15;5.97;;;7.40;99.90;;;;;;5047313;28;20030;-78
2021/10/30 01:20:00;;;;;;;11.20;6.05;;;7.40;99.90;;;;;;5042246;28;20028;-77
2021/10/30 01:22:26;;;;;;;11.40;6.85;;;7.50;99.90;;;;;;5053439;28;20387;-77
2021/10/30 01:24:53;;;;;;;17.20;9.20;;;7.60;99.90;;;;;;5050336;28;20025;-76
2021/10/30 01:27:21;;;;;;;11.65;7.10;;;7.60;99.90;;;;;;5048859;28;20742;-77
2021/10/30 01:29:51;;;;;;;13.35;6.50;;;7.50;99.90;;;;;;5051048;28;20090;-76
2021/10/30 01:32:18;;;;;;;10.93;6.57;;;7.40;99.90;;;;;;5050877;28;20601;-76
2021/10/30 01:34:45;;;;;;;13.52;7.28;;;7.40;99.90;;;;;;5049379;28;20074;-76
2021/10/30 01:37:12;;;;;;;11.43;6.72;;;7.50;99.90;;;;;;5051792;28;20044;-77
2021/10/30 01:39:38;;;;;;;12.50;6.30;;;7.50;99.90;;;;;;5052242;28;20025;-77
2021/10/30 01:42:04;;;;;;;10.18;5.53;;;7.70;99.90;;;;;;5050885;28;20040;-76
2021/10/30 01:44:30;;;;;;;11.52;6.50;;;7.80;99.90;;;;;;5050243;28;20104;-77
2021/10/30 01:46:58;;;;;;;13.50;6.57;;;7.80;99.90;;;;;;5049915;28;20094;-77
2021/10/30 01:49:25;;;;;;;10.30;5.75;;;7.80;99.90;;;;;;5052670;28;20170;-77
2021/10/30 01:51:51;;;;;;;12.63;7.25;;;7.60;99.90;;;;;;5052047;28;20060;-77
2021/10/30 01:54:17;;;;;;;15.32;7.70;;;7.50;99.90;;;;;;5049542;28;20550;-78
2021/10/30 01:56:42;;;;;;;14.35;8.05;;;7.50;99.90;;;;;;5048685;28;20155;-76
2021/10/30 01:59:08;;;;;;;15.82;8.77;;;7.70;99.90;;;;;;5052052;28;20111;-77
2021/10/30 02:01:35;;;;;;;16.88;9.10;;;7.60;99.90;;;;;;5050980;28;20013;-76
2021/10/30 02:04:01;;;;;;;14.45;8.30;;;7.40;99.90;;;;;;5050366;28;20032;-76
2021/10/30 02:06:28;;;;;;;12.23;6.68;;;7.20;99.90;;;;;;5045277;28;20037;-77
2021/10/30 02:08:54;;;;;;;12.45;7.38;;;7.20;99.90;;;;;;5050530;28;20041;-77
2021/10/30 02:11:20;;;;;;;12.05;5.90;;;7.20;99.90;;;;;;5051076;28;20056;-76
2021/10/30 02:13:46;;;;;;;12.10;7.28;;;7.10;99.90;;;;;;5049586;28;20021;-76
2021/10/30 02:16:13;;;;;;;10.38;5.88;;;7.00;99.90;;;;;;5050278;28;20031;-77
2021/10/30 02:18:40;;;;;;;12.38;6.93;;;6.80;99.90;;;;;;5050857;28;20052;-77
2021/10/30 02:21:06;;;;;;;14.00;5.80;;;6.90;99.90;;;;;;5050866;28;20033;-76
2021/10/30 02:23:32;;;;;;;12.88;6.50;;;6.80;99.90;;;;;;5049561;28;20029;-77
2021/10/30 02:25:58;;;;;;;10.13;6.25;;;7.10;99.90;;;;;;5048384;28;20360;-78
2021/10/30 02:28:24;;;;;;;10.45;6.47;;;7.20;99.90;;;;;;5051639;28;20235;-76
2021/10/30 02:30:49;;;;;;;12.65;6.43;;;7.00;99.90;;;;;;5051418;28;20021;-76
2021/10/30 02:33:15;;;;;;;11.68;6.85;;;6.90;99.90;;;;;;5048641;28;20079;-76
2021/10/30 02:35:41;;;;;;;13.55;7.05;;;6.90;99.90;;;;;;5050498;28;20031;-76
2021/10/30 02:38:07;;;;;;;13.27;7.40;;;6.90;99.90;;;;;;5049019;28;20529;-76
2021/10/30 02:40:33;;;;;;;16.15;6.72;;;7.00;99.90;;;;;;5050648;28;20029;-77
2021/10/30 02:42:58;;;;;;;11.60;6.30;;;6.90;99.90;;;;;;5048491;28;20032;-77
2021/10/30 02:45:24;;;;;;;13.60;7.50;;;6.90;99.90;;;;;;5047849;28;20082;-76
2021/10/30 02:47:50;;;;;;;12.20;6.30;;;6.90;99.90;;;;;;5049234;28;20025;-76
2021/10/30 02:50:16;;;;;;;11.00;6.18;;;6.80;99.90;;;;;;5051023;28;20036;-77
2021/10/30 02:52:42;;;;;;;10.55;6.28;;;6.60;99.90;;;;;;5048852;28;20022;-77
2021/10/30 02:55:09;;;;;;;10.02;5.25;;;6.50;99.90;;;;;;5041923;28;20021;-76
2021/10/30 02:57:35;;;;;;;7.80;4.38;;;6.30;99.90;;;;;;5048134;28;20488;-76
2021/10/30 03:00:01;;;;;;;10.20;4.82;;;6.30;99.90;;;;;;5049604;28;20053;-76
2021/10/30 03:02:26;;;;;;;8.82;4.40;;;6.40;99.90;;;;;;5046752;28;20028;-76
2021/10/30 03:04:52;;;;;;;10.02;4.80;;;6.50;99.90;;;;;;5029114;28;20025;-76
2021/10/30 03:07:19;;;;;;;9.32;5.13;;;6.60;99.90;;;;;;5027264;28;20558;-77
2021/10/30 03:09:49;;;;;;;10.82;6.40;;;6.20;99.90;;;;;;5039240;28;20033;-75
2021/10/30 03:12:15;;;;;;;9.32;5.45;;;6.30;99.90;;;;;;5040925;28;20468;-76
2021/10/30 03:14:41;;;;;;;9.98;4.97;;;6.30;99.90;;;;;;5034342;28;20113;-76
2021/10/30 03:17:06;;;;;;;9.43;5.60;;;6.30;99.90;;;;;;5043088;28;20175;-76
2021/10/30 03:19:32;;;;;;;9.55;5.05;;;6.40;99.90;;;;;;5042598;28;20083;-76
2021/10/30 03:21:58;;;;;;;8.70;4.75;;;6.50;99.90;;;;;;5044346;28;20035;-78
2021/10/30 03:24:24;;;;;;;8.48;3.75;;;6.60;99.90;;;;;;5043667;28;20407;-76
2021/10/30 03:26:50;;;;;;;11.77;5.78;;;6.70;99.90;;;;;;5045308;28;20061;-76
2021/10/30 03:29:16;;;;;;;8.70;4.97;;;6.50;99.90;;;;;;5042487;28;20767;-76
2021/10/30 03:31:41;;;;;;;10.43;4.70;;;6.40;99.90;;;;;;5047039;28;20062;-76
2021/10/30 03:34:07;;;;;;;9.13;5.25;;;6.50;99.90;;;;;;5046333;28;20029;-76
2021/10/30 03:36:33;;;;;;;8.77;5.35;;;6.30;99.90;;;;;;5045715;28;20395;-76
2021/10/30 03:38:59;;;;;;;10.20;6.13;;;6.10;99.90;;;;;;5043117;28;20092;-76
2021/10/30 03:41:25;;;;;;;11.70;5.93;;;6.10;99.90;;;;;;5043036;28;20052;-78
2021/10/30 03:43:51;;;;;;;8.70;5.90;;;6.10;99.90;;;;;;5045823;28;20056;-75
2021/10/30 03:46:17;;;;;;;10.93;5.78;;;6.10;99.90;;;;;;5044523;28;20032;-76
2021/10/30 03:48:42;;;;;;;12.70;6.05;;;6.30;99.90;;;;;;5043197;28;20095;-76
2021/10/30 03:51:08;;;;;;;11.10;5.40;;;6.30;99.90;;;;;;5043944;28;20028;-76
2021/10/30 03:53:34;;;;;;;12.30;5.45;;;6.40;99.90;;;;;;5045359;28;20083;-76
2021/10/30 03:55:59;;;;;;;9.63;5.28;;;6.40;99.90;;;;;;5045620;28;20025;-76
2021/10/30 03:58:25;;;;;;;9.50;4.97;;;6.60;99.90;;;;;;5043254;28;20056;-76
2021/10/30 04:00:51;;;;;;;9.15;4.75;;;6.70;99.90;;;;;;5039081;28;20479;-77
2021/10/30 04:03:16;;;;;;;9.07;5.43;;;6.60;99.90;;;;;;5041743;28;20044;-76
2021/10/30 04:05:42;;;;;;;10.52;5.68;;;6.50;99.90;;;;;;5042714;28;20033;-77
2021/10/30 04:08:08;;;;;;;9.63;5.07;;;6.30;99.90;;;;;;5044543;28;20036;-76
2021/10/30 04:10:34;;;;;;;11.38;6.25;;;6.20;99.90;;;;;;5045782;28;20726;-78
2021/10/30 04:13:01;;;;;;;8.50;5.10;;;6.10;99.90;;;;;;5042046;28;20087;-76
2021/10/30 04:15:26;;;;;;;9.18;5.20;;;6.10;99.90;;;;;;5046883;28;20104;-76
2021/10/30 04:17:52;;;;;;;7.88;4.63;;;6.30;99.90;;;;;;5045528;28;20152;-76
2021/10/30 04:20:18;;;;;;;7.25;3.72;;;6.40;99.90;;;;;;5047045;28;20029;-76
2021/10/30 04:22:43;;;;;;;7.45;3.83;;;6.60;99.90;;;;;;5044474;28;20091;-76
2021/10/30 04:25:09;;;;;;;15.00;4.20;;;6.50;99.90;;;;;;5043694;28;20035;-75
2021/10/30 04:27:35;;;;;;;8.98;3.90;;;6.40;99.90;;;;;;5044819;28;20107;-76
2021/10/30 04:30:01;;;;;;;11.57;4.53;;;6.30;99.90;;;;;;5045029;28;20137;-76
2021/10/30 04:32:26;;;;;;;10.05;4.35;;;6.40;99.90;;;;;;5044193;28;20098;-76
2021/10/30 04:34:59;;;;;;;8.23;4.47;;;6.40;99.90;;;;;;5045036;28;20033;-76
2021/10/30 04:37:25;;;;;;;8.77;4.45;;;6.40;99.90;;;;;;5043669;28;20083;-76
2021/10/30 04:39:53;;;;;;;8.00;4.55;;;6.20;99.90;;;;;;5045330;28;20033;-76
2021/10/30 04:42:20;;;;;;;11.48;5.25;;;6.10;99.90;;;;;;5042370;28;20032;-76
2021/10/30 04:44:46;;;;;;;7.50;3.90;;;5.90;99.90;;;;;;5022850;28;20041;-76
2021/10/30 04:47:15;;;;;;;10.18;4.63;;;5.80;99.90;;;;;;5041235;28;20041;-77
2021/10/30 04:49:40;;;;;;;7.32;4.63;;;5.70;99.90;;;;;;5043673;28;20087;-76
2021/10/30 04:52:08;;;;;;;7.97;4.25;;;5.70;99.90;;;;;;5045345;28;20265;-76
2021/10/30 04:54:33;;;;;;;9.15;4.72;;;5.70;99.90;;;;;;5043288;28;20029;-76
2021/10/30 04:56:59;;;;;;;10.52;5.40;;;5.80;99.90;;;;;;5045644;28;20074;-76
2021/10/30 04:59:25;;;;;;;9.45;5.00;;;5.70;99.90;;;;;;5041186;28;20037;-76
2021/10/30 05:01:51;;;;;;;10.48;5.18;;;5.70;99.90;;;;;;5045270;28;20115;-79
2021/10/30 05:04:16;;;;;;;10.77;5.32;;;5.70;99.90;;;;;;5043915;28;20632;-76
2021/10/30 05:06:42;;;;;;;9.30;4.47;;;5.70;99.90;;;;;;5043621;28;20052;-76
2021/10/30 05:09:08;;;;;;;9.40;4.82;;;5.70;99.90;;;;;;5027367;28;20059;-76
2021/10/30 05:11:34;;;;;;;9.80;4.32;;;5.70;99.90;;;;;;5043763;28;20081;-77
2021/10/30 05:13:59;;;;;;;11.18;5.25;;;5.80;99.90;;;;;;5044646;28;20481;-76
2021/10/30 05:16:25;;;;;;;9.32;4.32;;;5.90;99.90;;;;;;5044049;28;20033;-78
2021/10/30 05:18:51;;;;;;;8.43;5.10;;;5.90;99.90;;;;;;5044849;28;20414;-77
2021/10/30 05:21:17;;;;;;;9.88;5.40;;;5.80;99.90;;;;;;5044468;28;20963;-76
2021/10/30 05:23:43;;;;;;;7.00;4.82;;;5.70;99.90;;;;;;5026705;28;20112;-77
2021/10/30 05:26:09;;;;;;;7.90;4.35;;;5.60;99.90;;;;;;5038686;28;20094;-76
2021/10/30 05:28:35;;;;;;;9.35;4.32;;;5.70;99.90;;;;;;5036477;28;20037;-76
2021/10/30 05:31:02;;;;;;;8.50;4.32;;;5.60;99.90;;;;;;5030776;28;20764;-76
2021/10/30 05:33:27;;;;;;;8.00;4.20;;;5.50;99.90;;;;;;5038471;28;20059;-76
2021/10/30 05:35:53;;;;;;;8.00;4.43;;;5.40;99.90;;;;;;5045099;28;20487;-76
2021/10/30 05:38:19;;;;;;;7.32;3.70;;;5.60;99.90;;;;;;5043824;28;20047;-76
2021/10/30 05:40:46;;;;;;;9.23;4.88;;;5.70;99.90;;;;;;5044142;28;20027;-75
2021/10/30 05:43:12;;;;;;;7.93;4.32;;;5.60;99.90;;;;;;5044703;28;20556;-76
2021/10/30 05:45:46;;;;;;;8.80;4.15;;;5.60;99.90;;;;;;5048053;28;20047;-76
2021/10/30 05:48:13;;;;;;;11.25;4.68;;;5.90;99.90;;;;;;5046787;28;20705;-76
2021/10/30 05:50:40;;;;;;;7.15;4.10;;;6.00;99.90;;;;;;5043657;28;20668;-76
2021/10/30 05:53:07;;;;;;;7.72;3.97;;;6.00;99.90;;;;;;5047669;28;20033;-76
2021/10/30 05:55:33;;;;;;;9.55;4.45;;;6.00;99.90;;;;;;5047805;28;20486;-76
2021/10/30 05:58:00;;;;;;;15.38;7.13;;;5.90;99.90;;;;;;5045302;28;20029;-75
2021/10/30 06:00:26;;;;;;;17.42;8.35;;;5.70;99.90;;;;;;5029803;28;20037;-75
2021/10/30 06:02:52;;;;;;;15.93;7.88;;;5.80;99.90;;;;;;5034015;28;20034;-76
2021/10/30 06:05:18;;;;;;;11.15;4.95;;;5.70;99.90;;;;;;5040689;28;20037;-76
2021/10/30 06:07:44;;;;;;;8.82;4.80;;;5.70;99.90;;;;;;5048314;28;20025;-75
2021/10/30 06:10:10;;;;;;;8.43;4.00;;;5.70;99.90;;;;;;5045628;28;20049;-76
2021/10/30 06:12:40;;;;;;;8.57;4.72;;;5.70;99.90;;;;;;5046844;28;20403;-76
2021/10/30 06:15:07;;;;;;;10.10;5.13;;;5.70;99.90;;;;;;5045663;28;20480;-76
2021/10/30 06:17:33;;;;;;;10.15;4.47;;;5.80;99.90;;;;;;5047306;28;20063;-76
2021/10/30 06:19:59;;;;;;;7.88;4.60;;;5.70;99.90;;;;;;5045948;28;20371;-76
2021/10/30 06:22:24;;;;;;;7.25;4.63;;;5.70;99.90;;;;;;5046432;28;20040;-76
2021/10/30 06:24:50;;;;;;;7.53;3.85;;;5.60;99.90;;;;;;5047074;28;20094;-77
2021/10/30 06:27:16;;;;;;;9.07;4.50;;;5.60;99.90;;;;;;5043128;28;20068;-76
2021/10/30 06:29:41;;;;;;;7.57;4.25;;;5.50;99.90;;;;;;5035183;28;20041;-76
2021/10/30 06:32:07;;;;;;;10.40;5.05;;;5.60;99.90;;;;;;5045606;28;20025;-76
2021/10/30 06:34:33;;;;;;;9.60;5.55;;;5.50;99.90;;;;;;5045990;28;20032;-75
2021/10/30 06:36:58;;;;;;;11.57;5.38;;;5.50;99.90;;;;;;5047371;28;20479;-76
2021/10/30 06:39:24;;;;;;;7.93;4.80;;;5.60;99.90;;;;;;5046270;28;20040;-75
2021/10/30 06:41:50;;;;;;;8.88;5.20;;;5.60;99.90;;;;;;5042774;28;20033;-76
2021/10/30 06:44:16;;;;;;;8.38;4.63;;;5.50;99.90;;;;;;5045409;28;20116;-76
2021/10/30 06:46:42;;;;;;;8.68;4.78;;;5.40;99.90;;;;;;5038493;28;20028;-75
2021/10/30 06:49:11;;;;;;;6.65;4.03;;;5.40;99.90;;;;;;5037213;28;20060;-77
2021/10/30 06:51:38;;;;;;;6.95;4.05;;;5.50;99.90;;;;;;5049277;28;20032;-76
2021/10/30 06:54:05;;;;;;;7.65;4.43;;;5.60;99.90;;;;;;5046918;28;20024;-76
2021/10/30 06:56:32;;;;;;;7.65;4.05;;;5.70;99.90;;;;;;5037898;28;20512;-76
2021/10/30 06:58:58;;;;;;;8.25;4.50;;;5.80;99.90;;;;;;5044960;28;20040;-75
2021/10/30 07:01:24;;;;;;;9.02;4.32;;;5.80;99.90;;;;;;5043179;28;20159;-77
2021/10/30 07:03:50;;;;;;;11.73;6.05;;;5.80;99.90;;;;;;5042923;28;20647;-75
2021/10/30 07:06:16;;;;;;;9.02;4.93;;;5.50;99.90;;;;;;5035329;28;20565;-76
2021/10/30 07:08:42;;;;;;;11.35;4.05;;;5.50;99.90;;;;;;5044242;28;20037;-75
2021/10/30 07:11:08;;;;;;;8.70;3.38;;;5.70;99.90;;;;;;5042176;28;20106;-76
2021/10/30 07:13:33;;;;;;;10.18;4.10;;;5.90;99.90;;;;;;5044575;28;20636;-76
2021/10/30 07:15:59;;;;;;;7.95;4.35;;;5.70;99.90;;;;;;5041558;28;20040;-75
2021/10/30 07:18:25;;;;;;;8.07;3.85;;;5.60;99.90;;;;;;5042767;28;20054;-75
2021/10/30 07:20:50;;;;;;;7.18;3.58;;;5.60;99.90;;;;;;5042712;28;20407;-74
2021/10/30 07:23:17;;;;;;;7.30;3.88;;;5.80;99.90;;;;;;5043614;28;20123;-76
2021/10/30 07:25:42;;;;;;;11.52;4.82;;;5.90;99.90;;;;;;5042318;28;20109;-75
2021/10/30 07:28:08;;;;;;;7.75;3.95;;;5.90;99.90;;;;;;5047424;28;20032;-75
2021/10/30 07:30:34;;;;;;;8.82;4.55;;;6.10;99.90;;;;;;5047214;28;20166;-76
2021/10/30 07:33:00;;;;;;;9.55;3.97;;;6.00;99.90;;;;;;5046957;28;20029;-78
2021/10/30 07:35:25;;;;;;;7.72;4.43;;;5.90;99.90;;;;;;5046935;28;20519;-81
2021/10/30 07:37:58;;;;;;;9.50;3.72;;;6.00;99.90;;;;;;5047131;28;20345;-76
2021/10/30 07:40:24;;;;;;;9.45;5.28;;;5.90;99.90;;;;;;5046267;28;20158;-76
2021/10/30 07:42:50;;;;;;;6.53;4.65;;;6.00;99.90;;;;;;5045528;28;20033;-76
2021/10/30 07:45:15;;;;;;;14.68;4.78;;;5.90;99.90;;;;;;5046576;28;20028;-75
2021/10/30 07:47:41;;;;;;;8.10;3.55;;;5.60;99.90;;;;;;5047168;28;20032;-76
2021/10/30 07:50:08;;;;;;;7.93;4.47;;;5.70;99.90;;;;;;5027251;28;20044;-76
2021/10/30 07:52:34;;;;;;;7.40;4.07;;;5.80;99.90;;;;;;5037101;28;20112;-76
2021/10/30 07:55:00;;;;;;;9.27;4.97;;;5.90;99.90;;;;;;5046754;28;20029;-76
2021/10/30 07:57:25;;;;;;;8.40;4.18;;;5.90;99.90;;;;;;5046682;28;20036;-76
2021/10/30 07:59:51;;;;;;;10.52;4.15;;;5.80;99.90;;;;;;5026034;28;20038;-76
2021/10/30 08:02:20;;;;;;;8.25;4.13;;;6.00;99.90;;;;;;5046316;28;20048;-76
2021/10/30 08:04:46;;;;;;;8.48;3.47;;;6.00;99.90;;;;;;5046471;28;20119;-76
2021/10/30 08:07:12;;;;;;;8.55;3.70;;;5.80;99.90;;;;;;5047250;28;20060;-76
2021/10/30 08:09:41;;;;;;;8.98;4.13;;;5.90;99.90;;;;;;5046780;28;20033;-76
2021/10/30 08:12:07;;;;;;;6.90;3.60;;;6.00;99.90;;;;;;5047064;28;20108;-76
2021/10/30 08:14:32;;;;;;;7.05;3.75;;;6.10;99.90;;;;;;5047200;28;20383;-75
2021/10/30 08:16:58;;;;;;;7.93;3.63;;;6.00;99.90;;;;;;5047326;28;20029;-75
2021/10/30 08:19:24;;;;;;;8.75;3.55;;;6.30;99.90;;;;;;5046513;28;20021;-77
2021/10/30 08:21:49;;;;;;;6.93;3.90;;;6.30;99.90;;;;;;5045921;28;20033;-76
2021/10/30 08:24:15;;;;;;;9.73;4.25;;;6.20;99.90;;;;;;5044849;28;20033;-77
2021/10/30 08:26:41;;;;;;;6.80;3.45;;;6.10;99.90;;;;;;5046853;28;20021;-74
2021/10/30 08:29:08;;;;;;;7.35;3.20;;;6.10;99.90;;;;;;5047034;28;20673;-77
2021/10/30 08:31:34;;;;;;;7.13;3.80;;;6.20;99.90;;;;;;5047870;28;20031;-76
2021/10/30 08:33:59;;;;;;;5.75;3.55;;;6.00;99.90;;;;;;5046879;28;20033;-77
2021/10/30 08:36:29;;;;;;;6.75;3.92;;;6.00;99.90;;;;;;5047374;28;20041;-76
2021/10/30 08:38:55;;;;;;;7.35;3.10;;;6.00;99.90;;;;;;5046882;28;20441;-77
2021/10/30 08:41:21;;;;;;;17.55;3.90;;;6.10;99.90;;;;;;5047348;28;20037;-75
2021/10/30 08:43:50;;;;;;;6.35;3.83;;;6.40;99.90;;;;;;5046088;28;20103;-75
2021/10/30 08:46:16;;;;;;;8.85;4.30;;;6.40;99.90;;;;;;5047101;28;20030;-77
2021/10/30 08:48:44;;;;;;;5.95;3.38;;;6.50;99.90;;;;;;5047305;28;20037;-78
2021/10/30 08:51:10;;;;;;;9.63;4.45;;;6.60;99.90;;;;;;5057166;28;20040;-77
2021/10/30 08:53:36;;;;;;;9.57;4.25;;;6.70;99.90;;;;;;5050306;28;20021;-73
2021/10/30 08:56:03;;;;;;;15.18;4.75;;;6.80;99.90;;;;;;5051260;28;20041;-78
2021/10/30 08:58:30;;;;;;;7.35;3.95;;;7.00;99.90;;;;;;5049991;28;20060;-77
2021/10/30 09:01:03;;;;;;;6.78;4.05;;;7.00;99.90;;;;;;5050565;28;20041;-74
2021/10/30 09:03:29;;;;;;;8.27;4.93;;;7.40;99.90;;;;;;5049693;28;20037;-77
2021/10/30 09:05:57;;;;;;;7.75;4.38;;;7.40;99.90;;;;;;5050737;28;20080;-76
2021/10/30 09:08:26;;;;;;;7.30;3.95;;;7.30;99.90;;;;;;5050724;28;20486;-79
2021/10/30 09:11:10;;;;;;;9.43;4.43;;;7.30;99.90;;;;;;5050364;28;20124;-78
2021/10/30 09:13:37;;;;;;;6.32;3.97;;;7.40;99.90;;;;;;5050672;28;20353;-77
2021/10/30 09:16:03;;;;;;;12.98;6.85;;;7.60;99.90;;;;;;5050454;28;20029;-77
2021/10/30 09:18:37;;;;;;;9.32;5.70;;;7.60;99.90;;;;;;5049978;28;20356;-76
2021/10/30 09:21:03;;;;;;;13.10;5.53;;;7.60;99.90;;;;;;5049754;28;20411;-76
2021/10/30 09:23:31;;;;;;;9.90;5.15;;;7.60;99.90;;;;;;5050107;28;20268;-76
2021/10/30 09:26:27;;;;;;;8.57;5.57;;;7.70;99.90;;;;;;5049607;28;20044;-77
2021/10/30 09:29:05;;;;;;;12.52;6.55;;;7.70;99.90;;;;;;5045664;28;20124;-77
2021/10/30 09:31:30;;;;;;;11.75;5.70;;;7.80;99.90;;;;;;5049955;28;20037;-77
2021/10/30 09:34:05;;;;;;;10.07;5.22;;;7.80;99.90;;;;;;5049325;28;20025;-78
2021/10/30 09:36:37;;;;;;;13.15;6.07;;;7.90;99.90;;;;;;5049694;28;20032;-78
2021/10/30 09:39:08;;;;;;;14.35;5.97;;;7.90;99.90;;;;;;5049648;28;20125;-77
2021/10/30 09:41:40;;;;;;;12.52;5.50;;;8.10;99.90;;;;;;5049644;28;20025;-77
2021/10/30 09:44:15;;;;;;;11.07;5.45;;;8.20;99.90;;;;;;5049528;28;20021;-77
2021/10/30 09:46:44;;;;;;;16.48;7.22;;;8.30;99.90;;;;;;5049436;28;20013;-77
2021/10/30 09:49:28;;;;;;;7.95;4.55;;;8.30;99.90;;;;;;5049463;28;20108;-77
2021/10/30 09:52:04;;;;;;;10.35;5.32;;;8.60;99.90;;;;;;5049276;28;20027;-77
2021/10/30 09:54:41;;;;;;;9.40;5.65;;;8.50;99.90;;;;;;5049132;28;20025;-78
2021/10/30 09:57:11;;;;;;;11.38;6.05;;;8.50;99.90;;;;;;5049553;28;20058;-77
2021/10/30 09:59:39;;;;;;;10.25;6.38;;;8.70;99.90;;;;;;5049442;28;20063;-77
2021/10/30 10:02:08;;;;;;;9.02;5.45;;;8.80;99.80;;;;;;5049273;28;20418;-77
2021/10/30 10:04:37;;;;;;;11.20;5.47;;;8.90;99.80;;;;;;5048541;28;20025;-77
2021/10/30 10:07:08;;;;;;;13.02;7.22;;;9.00;99.30;;;;;;5049179;28;20542;-78
2021/10/30 10:09:35;;;;;;;8.40;4.93;;;8.90;99.20;;;;;;5048925;28;20544;-78
2021/10/30 10:12:01;;;;;;;17.35;6.07;;;9.00;99.70;;;;;;5048897;28;20025;-77
2021/10/30 10:14:28;;;;;;;9.25;5.10;;;9.20;99.60;;;;;;5048998;28;20040;-78
2021/10/30 10:16:56;;;;;;;9.98;5.70;;;9.20;99.40;;;;;;5048772;28;20039;-76
2021/10/30 10:19:23;;;;;;;10.93;5.32;;;9.40;99.30;;;;;;5031147;28;20017;-77
2021/10/30 10:21:53;;;;;;;9.73;5.20;;;9.60;99.10;;;;;;5048817;28;20083;-77
2021/10/30 10:24:26;;;;;;;10.63;6.57;;;9.80;98.50;;;;;;5048738;28;20021;-78
2021/10/30 10:26:53;;;;;;;11.63;6.55;;;9.90;98.60;;;;;;5048734;28;20025;-77
2021/10/30 10:29:32;;;;;;;12.20;5.95;;;9.90;98.40;;;;;;5048482;28;20037;-77
2021/10/30 10:32:01;;;;;;;11.52;5.95;;;9.90;98.20;;;;;;5048379;28;20555;-78
2021/10/30 10:34:34;;;;;;;14.35;6.25;;;9.90;98.50;;;;;;5048541;28;20488;-78
2021/10/30 10:37:11;;;;;;;11.32;5.90;;;10.00;98.40;;;;;;5048223;28;20079;-77
2021/10/30 10:39:57;;;;;;;10.50;6.05;;;10.00;98.00;;;;;;5048489;28;20079;-78
2021/10/30 10:42:35;;;;;;;9.27;5.85;;;10.20;98.50;;;;;;5048516;28;20017;-77
2021/10/30 10:45:05;;;;;;;12.77;6.30;;;10.20;97.10;;;;;;5048153;28;20100;-78
2021/10/30 10:47:39;;;;;;;11.25;5.68;;;10.20;97.20;;;;;;5048541;28;20025;-77
2021/10/30 10:50:22;;;;;;;10.55;6.10;;;10.30;97.10;;;;;;5047921;28;20537;-77
2021/10/30 10:53:15;;;;;;;10.25;6.20;;;10.50;97.40;;;;;;5047900;28;20017;-77
2021/10/30 10:55:47;;;;;;;10.23;5.63;;;10.50;96.80;;;;;;5048195;28;20095;-77
2021/10/30 10:58:14;;;;;;;9.48;5.15;;;10.60;97.10;;;;;;5048033;28;20029;-77
2021/10/30 11:00:59;;;;;;;9.52;6.05;;;10.60;97.00;;;;;;5049255;28;20025;-77
2021/10/30 11:03:27;;;;;;;8.07;5.03;;;10.60;97.10;;;;;;5047918;28;20025;-77
2021/10/30 11:05:57;;;;;;;9.05;5.88;;;10.60;96.90;;;;;;5048001;28;20344;-77
2021/10/30 11:08:32;;;;;;;13.85;6.15;;;10.70;96.70;;;;;;5047612;28;20024;-78
2021/10/30 11:11:07;;;;;;;11.02;5.82;;;11.00;96.90;;;;;;5047885;28;20048;-77
2021/10/30 11:13:33;;;;;;;10.07;5.40;;;11.20;96.30;;;;;;5048331;28;20036;-78
2021/10/30 11:16:03;;;;;;;8.23;5.10;;;11.30;95.90;;;;;;5047739;28;20029;-77
2021/10/30 11:18:36;;;;;;;9.10;4.65;;;11.50;95.50;;;;;;5046530;28;20044;-77
2021/10/30 11:21:18;;;;;;;8.55;4.57;;;11.60;95.20;;;;;;5046396;28;20056;-77
2021/10/30 11:23:49;;;;;;;7.35;4.57;;;11.60;95.00;;;;;;5046923;28;20029;-77
2021/10/30 11:26:30;;;;;;;7.47;4.82;;;11.60;94.60;;;;;;5029918;28;20056;-76
2021/10/30 11:29:09;;;;;;;8.68;4.35;;;11.80;95.30;;;;;;5047592;28;20033;-77
2021/10/30 11:31:35;;;;;;;30.63;7.65;;;12.10;94.40;;;;;;5047868;28;20031;-79
2021/10/30 11:34:06;;;;;;;21.88;6.88;;;11.90;94.40;;;;;;5047699;28;20030;-77
2021/10/30 11:36:37;;;;;;;12.20;5.30;;;11.70;94.50;;;;;;5047343;28;20040;-77
2021/10/30 11:39:06;;;;;;;9.00;4.70;;;11.80;94.70;;;;;;5047482;28;20386;-78
2021/10/30 11:41:33;;;;;;;7.13;4.70;;;11.90;95.20;;;;;;5029531;28;20021;-77
2021/10/30 11:44:03;;;;;;;9.88;5.57;;;12.00;94.70;;;;;;5047195;28;20031;-78
2021/10/30 11:46:30;;;;;;;9.80;5.20;;;12.10;94.80;;;;;;5047328;28;20032;-79
2021/10/30 11:48:57;;;;;;;11.70;5.60;;;12.10;94.20;;;;;;5046954;28;20048;-77
2021/10/30 11:51:30;;;;;;;11.70;5.32;;;12.10;94.80;;;;;;5046909;28;20386;-77
2021/10/30 11:53:56;;;;;;;10.38;5.53;;;11.90;94.50;;;;;;5046936;28;20033;-77
2021/10/30 11:56:27;;;;;;;9.75;5.55;;;11.80;94.10;;;;;;5047086;28;20519;-80
2021/10/30 11:58:55;;;;;;;8.98;5.50;;;11.80;94.30;;;;;;5047228;28;20136;-77
2021/10/30 12:01:31;;;;;;;10.52;5.72;;;12.10;94.50;;;;;;5047063;28;20021;-76
2021/10/30 12:04:09;;;;;;;8.32;4.72;;;12.50;94.30;;;;;;5046929;28;20656;-76
2021/10/30 12:06:44;;;;;;;11.23;5.55;;;12.50;93.90;;;;;;5047000;28;20513;-76
2021/10/30 12:09:34;;;;;;;7.53;4.95;;;12.40;94.40;;;;;;5047024;28;20035;-77
2021/10/30 12:12:05;;;;;;;10.02;4.28;;;12.50;93.80;;;;;;5046789;28;20133;-77
2021/10/30 12:14:32;;;;;;;8.40;4.97;;;12.40;93.50;;;;;;5046808;28;20610;-77
2021/10/30 12:17:10;;;;;;;9.45;5.93;;;12.40;93.90;;;;;;5046654;28;20667;-79
2021/10/30 12:19:39;;;;;;;9.90;4.80;;;12.40;93.80;;;;;;5046842;28;20383;-77
2021/10/30 12:22:17;;;;;;;8.77;4.18;;;12.40;93.70;;;;;;5046512;28;20048;-78
2021/10/30 12:24:44;;;;;;;6.28;3.65;;;12.30;93.30;;;;;;5046613;28;20480;-77
2021/10/30 12:27:10;;;;;;;6.47;4.00;;;12.30;93.10;;;;;;5047303;28;20098;-77
2021/10/30 12:29:44;;;;;;;8.32;4.32;;;12.30;93.00;;;;;;5050398;28;20460;-77
2021/10/30 12:32:12;;;;;;;;;;;12.30;93.00;;;;;;5051067;28;20099;-76
2021/10/30 12:34:55;;;;;;;7.13;3.97;;;12.30;92.90;;;;;;5050400;28;19948;-77
2021/10/30 12:37:29;;;;;;;7.72;3.95;;;12.10;92.40;;;;;;5050594;28;20029;-79
2021/10/30 12:39:57;;;;;;;8.75;4.78;;;12.00;92.40;;;;;;5049764;28;20029;-77
2021/10/30 12:42:23;;;;;;;9.52;5.13;;;12.00;92.50;;;;;;5048942;28;20025;-77
2021/10/30 12:44:50;;;;;;;9.25;4.05;;;12.10;93.00;;;;;;5048667;28;20021;-77
2021/10/30 12:47:17;;;;;;;7.95;4.32;;;12.20;93.00;;;;;;5048917;28;20112;-77
2021/10/30 12:49:43;;;;;;;8.55;4.50;;;12.30;93.00;;;;;;5048499;28;20025;-77
2021/10/30 12:52:12;;;;;;;8.25;3.55;;;12.30;93.00;;;;;;5048683;28;20565;-77
2021/10/30 12:54:40;;;;;;;6.55;3.50;;;12.30;92.90;;;;;;5048622;28;20123;-77